Latest Aviation Weather Report (METAR)

METAR VMMC 201300Z VRB01KT 9000 FEW010 SCT028 22/21 Q1018 NOSIG=

Decoded METAR in plain language
Contents of Report Code Information
Report Type METAR Aviation Routine Weather Report
Location VMMC Macao, China
Time of the Observation 201300Z 20/02/2019 13:00:00 UTC
Surface Wind Direction and Speed VRB01KT variable direction, speed 1 knots
Visibility 9000 9 kilometres
Present Weather    
Cloud FEW010 SCT028 amount 1-2 oktas; base 1000 feet
amount 3-4 oktas; base 2800 feet
Air Temperature and Dew-Point Temperature 22/21 air temperature 22°C
dew point temperature 21°C
Pressure (QNH) Q1018 1018 hPa
Trend Forecasts During Next Two Hours NOSIG no significant changes

OTHER INTERNATIONAL AIRPORTS:
Weather Forecast (TAF)   Weather Report (METAR)